Time;durP1;ratioP1;P1;durP2;ratioP2;P2;SDS_P1;SDS_P2;PMS_P1;PMS_P2;Temp;Humidity;BMP_temperature;BMP_pressure;BME280_temperature;BME280_humidity;BME280_pressure;Samples;Min_cycle;Max_cycle;Signal;HPM_P1;HPM_P2
2023/03/03 00:00:37;;;;;;;7.03;3.03;;;2.10;97.00;;;;;;5014284;28;20261;-66
2023/03/03 00:03:07;;;;;;;3.30;3.13;;;2.10;97.10;;;;;;5029701;28;20205;-66
2023/03/03 00:05:35;;;;;;;3.22;1.92;;;2.10;97.20;;;;;;5021470;28;20225;-65
2023/03/03 00:08:02;;;;;;;3.22;2.42;;;2.00;99.90;;;;;;5011883;28;20208;-67
2023/03/03 00:10:30;;;;;;;1.08;1.08;;;1.90;97.10;;;;;;5012672;28;20233;-68
2023/03/03 00:12:59;;;;;;;9.18;3.75;;;1.90;97.40;;;;;;5021746;28;20220;-66
2023/03/03 00:15:27;;;;;;;2.05;1.70;;;2.00;97.30;;;;;;5013060;28;20229;-66
2023/03/03 00:17:54;;;;;;;4.38;3.63;;;2.00;97.10;;;;;;5031441;28;20235;-66
2023/03/03 00:20:36;;;;;;;6.05;2.70;;;2.00;97.20;;;;;;5024405;28;20193;-66
2023/03/03 00:23:25;;;;;;;1.65;1.55;;;2.00;97.20;;;;;;5031844;28;20201;-66
2023/03/03 00:25:53;;;;;;;2.65;2.45;;;2.00;97.10;;;;;;5015153;28;20219;-67
2023/03/03 00:28:25;;;;;;;6.65;4.72;;;2.00;97.10;;;;;;5011072;28;20208;-66
2023/03/03 00:30:52;;;;;;;4.38;2.72;;;1.90;97.20;;;;;;5017062;28;20622;-66
2023/03/03 00:33:27;;;;;;;5.80;3.08;;;1.80;97.20;;;;;;5017432;28;20328;-66
2023/03/03 00:35:55;;;;;;;4.40;4.10;;;1.80;97.50;;;;;;5013934;28;20594;-67
2023/03/03 00:38:22;;;;;;;1.38;1.27;;;1.80;97.70;;;;;;5030709;28;20204;-66
2023/03/03 00:40:50;;;;;;;4.97;4.47;;;1.70;97.70;;;;;;5031172;28;20665;-66
2023/03/03 00:43:23;;;;;;;3.08;2.85;;;1.70;97.70;;;;;;5012828;28;20189;-66
2023/03/03 00:45:51;;;;;;;12.95;6.72;;;1.70;97.60;;;;;;5014101;28;20208;-67
2023/03/03 00:48:24;;;;;;;11.38;3.80;;;1.70;99.90;;;;;;5030000;28;20838;-66
2023/03/03 00:50:51;;;;;;;4.53;4.22;;;1.60;97.70;;;;;;5028728;28;20225;-66
2023/03/03 00:53:19;;;;;;;4.40;3.25;;;1.60;97.80;;;;;;5011603;28;20256;-66
2023/03/03 00:55:48;;;;;;;4.63;2.13;;;1.50;97.80;;;;;;5012210;28;20228;-66
2023/03/03 00:58:17;;;;;;;8.10;2.80;;;1.50;97.50;;;;;;5018178;28;20200;-66
2023/03/03 01:00:45;;;;;;;10.38;4.30;;;1.40;97.60;;;;;;5017944;28;20217;-67
2023/03/03 01:03:14;;;;;;;6.15;2.50;;;1.40;97.50;;;;;;5014304;28;20201;-66
2023/03/03 01:05:41;;;;;;;4.38;3.50;;;1.40;97.30;;;;;;5012308;28;20293;-67
2023/03/03 01:08:08;;;;;;;2.88;2.20;;;1.30;97.40;;;;;;5011047;28;20562;-65
2023/03/03 01:10:39;;;;;;;3.50;2.15;;;1.20;97.60;;;;;;5010725;28;20228;-66
2023/03/03 01:13:08;;;;;;;4.53;2.33;;;1.30;97.30;;;;;;5024853;28;20220;-66
2023/03/03 01:15:35;;;;;;;1.98;1.60;;;1.30;99.90;;;;;;5012715;28;20761;-66
2023/03/03 01:18:04;;;;;;;7.20;5.13;;;1.20;97.60;;;;;;5025641;28;20197;-66
2023/03/03 01:20:30;;;;;;;3.78;3.47;;;1.20;97.80;;;;;;5030419;28;20695;-66
2023/03/03 01:22:57;;;;;;;10.40;3.40;;;1.10;98.10;;;;;;5017273;28;20206;-67
2023/03/03 01:25:24;;;;;;;3.85;3.53;;;1.20;97.90;;;;;;5023749;28;20233;-66
2023/03/03 01:27:51;;;;;;;2.15;1.95;;;1.20;98.00;;;;;;5030168;28;20193;-67
2023/03/03 01:30:18;;;;;;;5.65;2.97;;;1.20;98.10;;;;;;5028712;28;20587;-66
2023/03/03 01:32:45;;;;;;;10.35;5.13;;;1.30;98.60;;;;;;5019786;28;20229;-66
2023/03/03 01:35:13;;;;;;;3.65;3.35;;;1.20;98.30;;;;;;5011028;28;20212;-66
2023/03/03 01:37:40;;;;;;;3.75;3.33;;;1.10;98.50;;;;;;5027965;28;20215;-66
2023/03/03 01:40:12;;;;;;;5.05;4.15;;;1.00;98.60;;;;;;5030814;28;20200;-66
2023/03/03 01:42:39;;;;;;;3.88;3.47;;;0.90;98.60;;;;;;5010053;28;20197;-66
2023/03/03 01:45:14;;;;;;;4.38;2.47;;;0.90;98.50;;;;;;5010759;28;20199;-67
2023/03/03 01:47:45;;;;;;;2.58;2.42;;;0.90;98.20;;;;;;5020306;28;20635;-66
2023/03/03 01:50:18;;;;;;;7.07;2.28;;;0.90;98.10;;;;;;5029336;28;20881;-66
2023/03/03 01:52:47;;;;;;;3.58;2.60;;;0.80;97.90;;;;;;5028803;28;20228;-66
2023/03/03 01:55:17;;;;;;;2.13;1.88;;;0.80;98.30;;;;;;5029459;28;20196;-66
2023/03/03 01:57:48;;;;;;;8.88;4.80;;;0.70;98.20;;;;;;5024215;28;20555;-66
2023/03/03 02:00:16;;;;;;;2.13;1.73;;;0.70;98.10;;;;;;5043746;28;20198;-66
2023/03/03 02:02:44;;;;;;;9.05;4.45;;;0.80;98.30;;;;;;5025603;28;20671;-66
2023/03/03 02:05:13;;;;;;;2.40;2.20;;;0.70;98.10;;;;;;5029072;28;20671;-66
2023/03/03 02:07:40;;;;;;;1.10;1.05;;;0.80;97.90;;;;;;5029122;28;20276;-66
2023/03/03 02:10:11;;;;;;;1.52;1.42;;;0.80;97.70;;;;;;5027389;28;20201;-66
2023/03/03 02:12:42;;;;;;;7.68;3.10;;;0.70;97.80;;;;;;5023783;28;20232;-66
2023/03/03 02:15:18;;;;;;;4.25;3.95;;;0.70;97.60;;;;;;5028587;28;20193;-67
2023/03/03 02:17:47;;;;;;;7.63;3.08;;;0.60;97.70;;;;;;5011993;28;20193;-66
2023/03/03 02:20:25;;;;;;;3.20;3.00;;;0.60;98.10;;;;;;5014464;28;20521;-66
2023/03/03 02:22:58;;;;;;;1.35;1.25;;;0.60;97.90;;;;;;5014327;28;20197;-66
2023/03/03 02:25:32;;;;;;;1.85;1.33;;;0.60;97.50;;;;;;5019625;28;20216;-66
2023/03/03 02:28:02;;;;;;;1.70;1.60;;;0.60;97.50;;;;;;5024031;28;20201;-65
2023/03/03 02:30:29;;;;;;;3.28;3.08;;;0.50;97.60;;;;;;5032818;28;20215;-66
2023/03/03 02:32:56;;;;;;;4.40;3.92;;;0.50;97.50;;;;;;5022537;28;20248;-67
2023/03/03 02:35:30;;;;;;;9.55;4.43;;;0.50;97.70;;;;;;5014250;28;20233;-66
2023/03/03 02:38:04;;;;;;;12.20;6.28;;;0.40;98.20;;;;;;5014129;28;20287;-66
2023/03/03 02:40:37;;;;;;;4.47;2.38;;;0.40;98.10;;;;;;5034411;28;20303;-66
2023/03/03 02:43:08;;;;;;;2.80;2.55;;;0.40;97.90;;;;;;5012022;28;20209;-66
2023/03/03 02:45:42;;;;;;;1.80;1.70;;;0.30;98.10;;;;;;5013967;28;20635;-66
2023/03/03 02:48:10;;;;;;;8.38;4.18;;;0.30;98.00;;;;;;5013639;28;20208;-66
2023/03/03 02:50:38;;;;;;;5.47;2.95;;;0.40;98.00;;;;;;5028162;28;20606;-66
2023/03/03 02:53:06;;;;;;;3.28;2.95;;;0.40;98.10;;;;;;5027222;28;20213;-66
2023/03/03 02:55:34;;;;;;;1.60;1.38;;;0.50;98.30;;;;;;5032800;28;20618;-66
2023/03/03 02:58:02;;;;;;;2.50;1.52;;;0.50;98.30;;;;;;5021639;28;20201;-67
2023/03/03 03:00:32;;;;;;;5.50;2.97;;;0.60;98.50;;;;;;5021314;28;20217;-66
2023/03/03 03:02:59;;;;;;;3.63;2.53;;;0.70;98.80;;;;;;5019432;28;20541;-66
2023/03/03 03:05:25;;;;;;;2.53;2.42;;;0.70;98.90;;;;;;5013535;28;20221;-66
2023/03/03 03:07:52;;;;;;;3.72;3.53;;;0.70;99.00;;;;;;5031018;28;20195;-67
2023/03/03 03:10:19;;;;;;;4.25;3.95;;;0.80;99.10;;;;;;5031447;28;20220;-66
2023/03/03 03:12:46;;;;;;;2.70;2.33;;;0.80;99.30;;;;;;5031559;28;20216;-66
2023/03/03 03:15:14;;;;;;;5.68;5.20;;;0.80;99.40;;;;;;5032924;28;20675;-66
2023/03/03 03:17:42;;;;;;;8.77;3.58;;;0.90;99.80;;;;;;5018978;28;20193;-66
2023/03/03 03:20:11;;;;;;;2.20;2.05;;;0.90;99.90;;;;;;5012132;28;20205;-66
2023/03/03 03:22:39;;;;;;;4.88;3.17;;;0.90;99.90;;;;;;5019600;28;20196;-66
2023/03/03 03:25:07;;;;;;;3.85;3.03;;;0.90;99.90;;;;;;5031455;28;20280;-66
2023/03/03 03:27:34;;;;;;;2.58;2.38;;;1.00;99.90;;;;;;5019192;28;20198;-66
2023/03/03 03:30:03;;;;;;;8.52;1.90;;;1.00;99.90;;;;;;5013749;28;20203;-66
2023/03/03 03:32:29;;;;;;;4.75;2.78;;;1.00;99.90;;;;;;5022759;28;20593;-67
2023/03/03 03:34:58;;;;;;;3.45;2.97;;;1.10;99.90;;;;;;5013256;28;20208;-67
2023/03/03 03:37:25;;;;;;;2.20;2.10;;;1.10;99.90;;;;;;5027181;28;20295;-66
2023/03/03 03:39:52;;;;;;;5.13;3.28;;;1.30;99.90;;;;;;5035910;28;20242;-66
2023/03/03 03:42:21;;;;;;;4.13;3.10;;;1.20;99.90;;;;;;5020003;28;20253;-66
2023/03/03 03:44:49;;;;;;;3.28;2.97;;;1.30;99.90;;;;;;5012882;28;20189;-67
2023/03/03 03:47:18;;;;;;;6.78;4.10;;;1.30;99.90;;;;;;5026512;28;20686;-67
2023/03/03 03:49:45;;;;;;;1.80;1.70;;;1.50;99.90;;;;;;5030990;28;20612;-66
2023/03/03 03:52:14;;;;;;;4.28;2.35;;;1.40;99.90;;;;;;5021960;28;20309;-66
2023/03/03 03:54:42;;;;;;;2.95;2.75;;;1.50;99.90;;;;;;5032530;28;20201;-66
2023/03/03 03:57:09;;;;;;;3.38;2.58;;;1.50;99.90;;;;;;5029724;28;20706;-66
2023/03/03 03:59:37;;;;;;;6.18;5.78;;;1.50;99.90;;;;;;5041803;28;20184;-66
2023/03/03 04:02:06;;;;;;;2.38;2.28;;;1.50;99.90;;;;;;5023299;28;20217;-67
2023/03/03 04:04:33;;;;;;;3.65;2.75;;;1.50;99.90;;;;;;5012629;28;20647;-66
2023/03/03 04:07:00;;;;;;;8.20;4.18;;;1.50;99.90;;;;;;5024564;28;20610;-65
2023/03/03 04:09:28;;;;;;;3.33;3.05;;;1.60;99.90;;;;;;5024781;28;20574;-66
2023/03/03 04:11:55;;;;;;;2.70;2.50;;;1.60;99.90;;;;;;5023309;28;20244;-67
2023/03/03 04:14:22;;;;;;;5.18;3.55;;;1.60;99.90;;;;;;5031691;28;20229;-67
2023/03/03 04:16:48;;;;;;;3.28;3.00;;;1.70;99.90;;;;;;5018528;28;20257;-66
2023/03/03 04:19:15;;;;;;;2.30;1.92;;;1.70;99.90;;;;;;5011143;28;20232;-67
2023/03/03 04:21:42;;;;;;;6.55;2.60;;;1.70;99.90;;;;;;5013263;28;20217;-66
2023/03/03 04:24:09;;;;;;;6.03;4.68;;;1.70;99.90;;;;;;5031273;28;21018;-66
2023/03/03 04:26:37;;;;;;;1.80;1.65;;;1.80;99.90;;;;;;5028196;28;20223;-66
2023/03/03 04:29:04;;;;;;;5.85;2.35;;;1.80;99.90;;;;;;5030811;28;20196;-67
2023/03/03 04:31:31;;;;;;;2.78;2.53;;;1.80;99.90;;;;;;5029925;28;20580;-66
2023/03/03 04:33:58;;;;;;;3.65;2.85;;;2.00;99.90;;;;;;5012586;28;20240;-66
2023/03/03 04:36:25;;;;;;;7.60;3.50;;;1.90;99.90;;;;;;5019574;28;20220;-66
2023/03/03 04:38:52;;;;;;;2.92;2.00;;;1.90;99.90;;;;;;5030897;28;20197;-66
2023/03/03 04:41:19;;;;;;;3.80;2.47;;;;;;;;;;5038402;28;20225;-66
2023/03/03 04:43:47;;;;;;;2.60;2.42;;;2.00;99.70;;;;;;5028550;28;20231;-67
2023/03/03 04:46:14;;;;;;;3.38;2.83;;;1.90;99.90;;;;;;5029244;28;20228;-66
2023/03/03 04:48:40;;;;;;;7.43;3.92;;;2.00;99.90;;;;;;5028277;28;20279;-66
2023/03/03 04:51:07;;;;;;;4.50;3.30;;;2.00;99.90;;;;;;5025866;28;20304;-66
2023/03/03 04:53:35;;;;;;;2.35;2.15;;;1.90;99.90;;;;;;5030528;28;20239;-66
2023/03/03 04:56:02;;;;;;;4.03;2.00;;;2.00;99.80;;;;;;5029100;28;20266;-66
2023/03/03 04:58:29;;;;;;;5.45;4.00;;;2.00;99.60;;;;;;5019561;28;20195;-66
2023/03/03 05:00:58;;;;;;;11.73;4.68;;;2.00;99.60;;;;;;5043868;28;20308;-66
2023/03/03 05:03:25;;;;;;;7.88;4.15;;;2.00;99.40;;;;;;5021218;28;20185;-66
2023/03/03 05:05:52;;;;;;;2.97;2.72;;;2.00;99.20;;;;;;5027234;28;20256;-66
2023/03/03 05:08:19;;;;;;;2.58;2.15;;;2.00;99.30;;;;;;5010228;28;20189;-66
2023/03/03 05:10:46;;;;;;;3.40;3.10;;;2.00;99.40;;;;;;5013099;28;20589;-67
2023/03/03 05:13:14;;;;;;;7.70;1.48;;;2.10;99.20;;;;;;5023810;28;20683;-66
2023/03/03 05:15:41;;;;;;;6.70;4.45;;;2.10;99.20;;;;;;5011082;28;20712;-66
2023/03/03 05:18:10;;;;;;;4.65;4.25;;;2.10;99.00;;;;;;5029304;28;20204;-66
2023/03/03 05:20:39;;;;;;;5.93;3.03;;;2.10;99.90;;;;;;5030392;28;20235;-66
2023/03/03 05:23:06;;;;;;;3.53;1.58;;;2.10;98.80;;;;;;5017970;28;20208;-66
2023/03/03 05:25:33;;;;;;;9.48;4.03;;;2.00;99.50;;;;;;5010390;28;20221;-66
2023/03/03 05:27:59;;;;;;;5.20;4.28;;;2.00;98.40;;;;;;5029457;28;20189;-67
2023/03/03 05:30:26;;;;;;;2.15;2.03;;;2.00;98.30;;;;;;5029574;28;20316;-66
2023/03/03 05:32:53;;;;;;;7.40;2.58;;;2.00;98.20;;;;;;5017344;28;20274;-66
2023/03/03 05:35:22;;;;;;;5.18;4.88;;;2.00;98.20;;;;;;5026459;28;20200;-66
2023/03/03 05:37:49;;;;;;;2.05;1.88;;;2.00;98.30;;;;;;5011030;28;20213;-67
2023/03/03 05:40:16;;;;;;;5.20;2.35;;;2.10;98.10;;;;;;5024046;28;20192;-66
2023/03/03 05:42:43;;;;;;;3.17;2.35;;;2.00;98.10;;;;;;5015639;28;20806;-66
2023/03/03 05:45:10;;;;;;;4.22;3.83;;;2.00;98.00;;;;;;5028725;28;20192;-66
2023/03/03 05:47:37;;;;;;;7.40;6.72;;;2.10;98.10;;;;;;5013116;28;20744;-66
2023/03/03 05:50:05;;;;;;;8.15;5.53;;;2.10;97.90;;;;;;5010557;28;20217;-66
2023/03/03 05:52:33;;;;;;;4.82;2.92;;;2.10;98.00;;;;;;5011402;28;20209;-66
2023/03/03 05:55:00;;;;;;;4.88;2.90;;;2.00;97.90;;;;;;5011963;28;20208;-66
2023/03/03 05:57:26;;;;;;;4.90;3.20;;;2.10;97.80;;;;;;5015587;28;20217;-66
2023/03/03 05:59:53;;;;;;;4.18;3.47;;;2.10;97.80;;;;;;5040948;28;20204;-66
2023/03/03 06:02:20;;;;;;;5.40;2.22;;;2.00;97.60;;;;;;5026192;28;20213;-67
2023/03/03 06:04:47;;;;;;;5.00;4.53;;;2.10;97.70;;;;;;5023245;28;20200;-66
2023/03/03 06:07:13;;;;;;;4.95;2.50;;;2.10;97.50;;;;;;5020177;28;20278;-66
2023/03/03 06:09:41;;;;;;;13.45;4.85;;;2.10;97.90;;;;;;5013537;28;20212;-66
2023/03/03 06:12:08;;;;;;;3.13;2.83;;;2.20;97.60;;;;;;5014355;28;20221;-66
2023/03/03 06:14:35;;;;;;;7.50;4.35;;;2.30;99.90;;;;;;5032750;28;20232;-66
2023/03/03 06:17:02;;;;;;;5.28;4.07;;;2.10;97.40;;;;;;5018751;28;20227;-66
2023/03/03 06:19:29;;;;;;;4.10;3.17;;;2.10;97.30;;;;;;5013100;28;20201;-66
2023/03/03 06:21:56;;;;;;;3.80;1.67;;;2.10;97.70;;;;;;5026893;28;20221;-66
2023/03/03 06:24:24;;;;;;;4.28;3.88;;;1.70;99.90;;;;;;5014541;28;20209;-66
2023/03/03 06:26:52;;;;;;;2.92;2.72;;;2.10;96.90;;;;;;5020771;28;20216;-67
2023/03/03 06:29:19;;;;;;;11.60;3.03;;;2.10;97.20;;;;;;5032926;28;20869;-66
2023/03/03 06:31:45;;;;;;;3.03;2.83;;;2.10;96.90;;;;;;5031554;28;20594;-66
2023/03/03 06:34:12;;;;;;;3.15;2.85;;;2.10;96.90;;;;;;5013425;28;20721;-66
2023/03/03 06:36:39;;;;;;;13.02;2.90;;;2.10;97.00;;;;;;5021234;28;20316;-67
2023/03/03 06:39:06;;;;;;;1.77;1.50;;;2.20;97.10;;;;;;5031018;28;20275;-67
2023/03/03 06:41:33;;;;;;;9.63;2.20;;;2.30;97.20;;;;;;5031053;28;20217;-66
2023/03/03 06:44:01;;;;;;;2.20;2.00;;;2.20;97.00;;;;;;5027374;28;20195;-66
2023/03/03 06:46:28;;;;;;;7.68;3.70;;;2.20;96.80;;;;;;5026898;28;20224;-66
2023/03/03 06:48:55;;;;;;;12.55;7.20;;;2.20;96.60;;;;;;5011544;28;21086;-66
2023/03/03 06:51:25;;;;;;;12.43;4.68;;;2.30;96.20;;;;;;5013537;28;20226;-67
2023/03/03 06:53:55;;;;;;;3.67;2.92;;;2.20;95.90;;;;;;5022868;28;20283;-66
2023/03/03 06:56:23;;;;;;;2.53;2.33;;;2.30;95.80;;;;;;5021600;28;20220;-66
2023/03/03 06:58:53;;;;;;;3.30;1.58;;;2.30;95.60;;;;;;5028029;28;20195;-66
2023/03/03 07:01:21;;;;;;;6.30;2.40;;;2.20;95.50;;;;;;5035301;28;20991;-67
2023/03/03 07:03:48;;;;;;;7.00;2.00;;;2.30;95.80;;;;;;5028608;28;20699;-66
2023/03/03 07:06:23;;;;;;;7.10;5.93;;;2.30;95.60;;;;;;5025511;28;20275;-66
2023/03/03 07:08:51;;;;;;;1.60;1.50;;;2.30;95.60;;;;;;5013569;28;20193;-66
2023/03/03 07:11:20;;;;;;;3.58;2.20;;;2.30;95.70;;;;;;5025996;28;20221;-66
2023/03/03 07:13:49;;;;;;;5.30;4.00;;;2.60;98.70;;;;;;5018405;28;20209;-66
2023/03/03 07:16:18;;;;;;;2.85;2.38;;;2.50;95.90;;;;;;5027099;28;20224;-66
2023/03/03 07:18:53;;;;;;;3.63;3.30;;;2.50;95.60;;;;;;5031848;28;20200;-66
2023/03/03 07:21:22;;;;;;;4.20;2.45;;;2.30;95.40;;;;;;5029357;28;20220;-66
2023/03/03 07:23:50;;;;;;;3.30;2.30;;;2.50;95.30;;;;;;5021942;28;20201;-67
2023/03/03 07:26:21;;;;;;;4.68;3.00;;;2.50;99.20;;;;;;5024036;28;20233;-67
2023/03/03 07:28:53;;;;;;;6.78;4.22;;;2.50;95.30;;;;;;5012009;28;20212;-67
2023/03/03 07:31:29;;;;;;;3.83;3.53;;;2.50;95.30;;;;;;5027144;28;20217;-66
2023/03/03 07:33:59;;;;;;;6.15;3.13;;;2.50;95.50;;;;;;5026986;28;20891;-66
2023/03/03 07:36:29;;;;;;;3.90;3.00;;;2.40;94.80;;;;;;5031652;28;20262;-66
2023/03/03 07:39:00;;;;;;;3.92;3.63;;;2.50;95.00;;;;;;5023301;28;20727;-66
2023/03/03 07:41:28;;;;;;;7.10;2.25;;;2.50;94.90;;;;;;5022286;28;20645;-66
2023/03/03 07:43:59;;;;;;;2.90;2.28;;;2.50;94.40;;;;;;5027289;28;20197;-66
2023/03/03 07:46:30;;;;;;;6.65;3.35;;;2.50;94.20;;;;;;5025688;28;20761;-67
2023/03/03 07:49:00;;;;;;;4.22;3.00;;;2.50;94.30;;;;;;5020501;28;20204;-66
2023/03/03 07:51:30;;;;;;;7.05;3.45;;;2.60;94.40;;;;;;5029667;28;20255;-66
2023/03/03 07:54:24;;;;;;;4.65;3.95;;;2.70;94.30;;;;;;5030375;28;20728;-67
2023/03/03 07:56:50;;;;;;;2.80;2.60;;;2.70;94.10;;;;;;5022254;28;20556;-66
2023/03/03 07:59:21;;;;;;;2.50;2.25;;;2.60;94.00;;;;;;5030558;28;20204;-66
2023/03/03 08:01:52;;;;;;;2.22;1.98;;;2.80;94.30;;;;;;5019933;28;20213;-67
2023/03/03 08:04:24;;;;;;;5.35;4.95;;;2.80;93.70;;;;;;5022430;28;20663;-66
2023/03/03 08:06:53;;;;;;;1.65;1.55;;;2.80;93.60;;;;;;5021330;28;20737;-66
2023/03/03 08:09:44;;;;;;;4.00;3.15;;;2.90;93.70;;;;;;5012213;28;20200;-67
2023/03/03 08:12:33;;;;;;;4.00;3.72;;;2.90;93.70;;;;;;5011631;28;20213;-66
2023/03/03 08:15:16;;;;;;;7.30;2.13;;;3.00;93.90;;;;;;5012295;28;20319;-66
2023/03/03 08:17:45;;;;;;;2.63;2.00;;;3.20;93.50;;;;;;5011911;28;20208;-66
2023/03/03 08:20:42;;;;;;;4.55;4.22;;;3.10;92.80;;;;;;5010486;28;20267;-67
2023/03/03 08:23:09;;;;;;;6.88;2.75;;;3.30;93.30;;;;;;5011872;28;20208;-67
2023/03/03 08:25:36;;;;;;;3.53;2.97;;;3.20;93.00;;;;;;5012510;28;20213;-67
2023/03/03 08:28:03;;;;;;;2.55;2.35;;;3.10;93.00;;;;;;5014055;28;20204;-67
2023/03/03 08:30:30;;;;;;;6.93;3.60;;;3.30;93.20;;;;;;5030834;28;20226;-67
2023/03/03 08:32:57;;;;;;;7.85;3.55;;;3.60;92.70;;;;;;5031337;28;20258;-66
2023/03/03 08:35:24;;;;;;;12.93;5.10;;;3.60;92.90;;;;;;5016136;28;20631;-67
2023/03/03 08:37:52;;;;;;;15.10;3.10;;;3.80;93.00;;;;;;5011766;28;20216;-66
2023/03/03 08:40:19;;;;;;;6.10;2.88;;;3.80;92.70;;;;;;5034383;28;20223;-66
2023/03/03 08:42:46;;;;;;;5.13;4.55;;;3.90;92.40;;;;;;5021290;28;20215;-66
2023/03/03 08:45:13;;;;;;;3.20;2.90;;;3.90;92.30;;;;;;5030738;28;20292;-66
2023/03/03 08:47:40;;;;;;;4.72;4.35;;;3.80;92.00;;;;;;5013810;28;20196;-67
2023/03/03 08:50:08;;;;;;;6.15;3.67;;;3.80;92.00;;;;;;5010467;28;20581;-66
2023/03/03 08:52:35;;;;;;;8.48;6.53;;;4.10;92.20;;;;;;5017270;28;20560;-66
2023/03/03 08:55:04;;;;;;;3.72;3.30;;;4.20;91.50;;;;;;5020537;28;20342;-66
2023/03/03 08:57:31;;;;;;;10.63;4.07;;;4.20;91.60;;;;;;5028169;28;20223;-67
2023/03/03 08:59:57;;;;;;;5.68;4.43;;;4.30;92.10;;;;;;5042609;28;20203;-66
2023/03/03 09:02:24;;;;;;;5.90;4.25;;;4.40;91.80;;;;;;5018794;28;20216;-66
2023/03/03 09:04:51;;;;;;;15.70;6.45;;;4.50;91.90;;;;;;5018634;28;20195;-68
2023/03/03 09:07:18;;;;;;;9.82;4.55;;;4.50;91.40;;;;;;5018211;28;20215;-68
2023/03/03 09:09:45;;;;;;;7.85;3.55;;;4.60;91.80;;;;;;5028114;28;20275;-68
2023/03/03 09:12:17;;;;;;;18.42;6.63;;;4.60;91.60;;;;;;5022395;28;20316;-69
2023/03/03 09:14:44;;;;;;;9.65;7.18;;;4.80;91.70;;;;;;5015424;28;20219;-68
2023/03/03 09:17:25;;;;;;;8.23;5.20;;;4.90;91.30;;;;;;5024237;28;20224;-68
2023/03/03 09:19:55;;;;;;;13.18;5.57;;;4.90;91.10;;;;;;5032046;28;20199;-67
2023/03/03 09:22:24;;;;;;;9.85;5.25;;;4.90;91.00;;;;;;5016210;28;20328;-66
2023/03/03 09:24:55;;;;;;;13.75;7.85;;;5.00;91.00;;;;;;5010998;28;20201;-67
2023/03/03 09:27:28;;;;;;;14.80;7.43;;;5.10;90.80;;;;;;5022172;28;20216;-67
2023/03/03 09:29:55;;;;;;;5.65;3.40;;;5.10;90.90;;;;;;5014707;28;20651;-67
2023/03/03 09:32:33;;;;;;;9.63;5.25;;;5.10;90.60;;;;;;5017457;28;20286;-66
2023/03/03 09:35:01;;;;;;;11.35;5.70;;;5.00;90.80;;;;;;5024267;28;20223;-66
2023/03/03 09:37:31;;;;;;;8.48;6.00;;;5.00;90.80;;;;;;5013729;28;20579;-67
2023/03/03 09:39:58;;;;;;;6.82;4.38;;;4.90;91.00;;;;;;5020593;28;20215;-66
2023/03/03 09:42:53;;;;;;;14.35;4.57;;;4.90;90.70;;;;;;5029587;28;20307;-67
2023/03/03 09:45:35;;;;;;;7.28;3.63;;;5.00;91.00;;;;;;5026706;28;20220;-66
2023/03/03 09:48:18;;;;;;;11.77;7.10;;;5.00;90.40;;;;;;5023793;28;20251;-66
2023/03/03 09:50:55;;;;;;;9.65;5.25;;;5.20;90.70;;;;;;5025019;28;20229;-68
2023/03/03 09:53:36;;;;;;;8.50;5.97;;;5.40;90.90;;;;;;5020657;28;20193;-66
2023/03/03 09:56:12;;;;;;;5.63;4.65;;;5.30;90.60;;;;;;5020552;28;20225;-67
2023/03/03 09:58:53;;;;;;;11.80;6.25;;;5.30;90.70;;;;;;5021325;28;20219;-68
2023/03/03 10:01:50;;;;;;;9.57;6.45;;;5.40;90.30;;;;;;5021552;28;20777;-68
2023/03/03 10:04:48;;;;;;;4.25;3.85;;;5.40;89.80;;;;;;5010069;28;20628;-67
2023/03/03 10:07:39;;;;;;;5.70;4.10;;;5.50;90.30;;;;;;5013831;28;20220;-68
2023/03/03 10:10:22;;;;;;;10.32;6.05;;;5.50;89.80;;;;;;5010727;28;20205;-67
2023/03/03 10:13:14;;;;;;;7.05;4.90;;;5.60;90.60;;;;;;5010274;28;20189;-66
2023/03/03 10:15:53;;;;;;;9.00;5.13;;;5.70;90.10;;;;;;5024445;28;20224;-68
2023/03/03 10:18:29;;;;;;;13.05;5.45;;;5.90;89.90;;;;;;5009037;28;20204;-69
2023/03/03 10:21:08;;;;;;;10.77;7.32;;;6.10;88.90;;;;;;5012892;28;20217;-69
2023/03/03 10:23:54;;;;;;;10.02;5.60;;;6.10;96.10;;;;;;5025576;28;20189;-68
2023/03/03 10:26:42;;;;;;;7.05;4.45;;;6.20;88.00;;;;;;5016832;28;20228;-67
2023/03/03 10:29:19;;;;;;;5.75;4.13;;;6.40;87.80;;;;;;5027129;28;20284;-66
2023/03/03 10:31:58;;;;;;;9.88;6.32;;;6.60;91.70;;;;;;5018726;28;20222;-67
2023/03/03 10:34:47;;;;;;;10.13;4.65;;;6.60;87.60;;;;;;5016323;28;20236;-67
2023/03/03 10:37:22;;;;;;;11.00;7.60;;;6.80;85.40;;;;;;5022430;28;20319;-67
2023/03/03 10:40:06;;;;;;;10.87;5.37;;;6.90;85.60;;;;;;5027583;28;20628;-68
2023/03/03 10:43:00;;;;;;;9.87;4.97;;;6.80;89.10;;;;;;5017749;28;20639;-67
2023/03/03 10:45:41;;;;;;;8.88;6.35;;;6.70;86.00;;;;;;5027297;28;20660;-66
2023/03/03 10:48:23;;;;;;;9.32;4.07;;;6.50;84.40;;;;;;5012239;28;20201;-67
2023/03/03 10:50:57;;;;;;;9.20;5.60;;;6.70;85.40;;;;;;5014228;28;20698;-66
2023/03/03 10:53:32;;;;;;;8.32;7.00;;;6.70;85.40;;;;;;5030305;28;20738;-66
2023/03/03 10:56:24;;;;;;;5.93;5.25;;;6.70;93.00;;;;;;5026215;28;20228;-66
2023/03/03 10:59:03;;;;;;;3.60;3.28;;;6.60;85.10;;;;;;5027888;28;20282;-67
2023/03/03 11:01:40;;;;;;;11.48;4.93;;;6.80;85.00;;;;;;5033157;28;20212;-67
2023/03/03 11:04:29;;;;;;;8.88;4.65;;;6.80;84.40;;;;;;5013751;28;20197;-66
2023/03/03 11:07:03;;;;;;;14.98;10.90;;;7.00;89.60;;;;;;5011377;28;20783;-68
2023/03/03 11:09:42;;;;;;;12.80;8.27;;;7.00;85.10;;;;;;5011925;28;20205;-67
2023/03/03 11:12:26;;;;;;;9.73;6.27;;;7.20;84.50;;;;;;5013241;28;20649;-67
2023/03/03 11:15:09;;;;;;;14.17;9.80;;;7.40;91.60;;;;;;5013898;28;20744;-68
2023/03/03 11:17:50;;;;;;;21.50;8.70;;;7.50;84.00;;;;;;5024420;28;20635;-67
2023/03/03 11:20:31;;;;;;;8.37;6.27;;;7.60;84.30;;;;;;5031512;28;20641;-66
2023/03/03 11:23:06;;;;;;;11.57;7.27;;;7.80;82.80;;;;;;5032665;28;20653;-67
2023/03/03 11:25:40;;;;;;;8.83;6.70;;;7.80;82.40;;;;;;5032459;28;20653;-67
2023/03/03 11:28:16;;;;;;;10.00;7.13;;;8.00;84.80;;;;;;5030139;28;20623;-67
2023/03/03 11:31:15;;;;;;;14.07;8.80;;;8.00;82.40;;;;;;5032359;28;20647;-66
2023/03/03 11:33:51;;;;;;;12.33;8.00;;;8.10;80.30;;;;;;4988358;28;20644;-67
2023/03/03 11:36:23;;;;;;;11.73;6.60;;;8.00;80.70;;;;;;5011634;28;20679;-68
2023/03/03 11:38:56;;;;;;;10.10;6.40;;;8.00;81.20;;;;;;5012038;28;20976;-67
2023/03/03 11:41:31;;;;;;;17.90;7.90;;;7.90;81.80;;;;;;5020873;28;20652;-67
2023/03/03 11:44:05;;;;;;;12.33;9.50;;;8.00;81.10;;;;;;5021480;28;20627;-67
2023/03/03 11:46:37;;;;;;;11.67;6.23;;;7.90;81.10;;;;;;5023677;28;20652;-67
2023/03/03 11:49:09;;;;;;;11.43;5.93;;;7.90;81.60;;;;;;5011355;28;20616;-66
2023/03/03 11:51:48;;;;;;;13.60;6.93;;;7.80;81.80;;;;;;5013389;28;20647;-67
2023/03/03 11:54:21;;;;;;;12.30;6.37;;;7.80;82.40;;;;;;5021064;28;20630;-67
2023/03/03 11:56:49;;;;;;;10.50;6.63;;;7.90;83.80;;;;;;5021178;28;20999;-66
2023/03/03 11:59:48;;;;;;;15.77;9.07;;;7.90;82.60;;;;;;5024853;28;20700;-68
2023/03/03 12:02:51;;;;;;;10.60;6.60;;;8.00;83.40;;;;;;5013199;28;20664;-67
2023/03/03 12:05:33;;;;;;;13.87;6.20;;;7.90;80.10;;;;;;4981104;28;20628;-67
2023/03/03 12:08:08;;;;;;;14.33;8.37;;;7.80;80.60;;;;;;5030257;28;21176;-67
2023/03/03 12:10:40;;;;;;;9.90;7.33;;;8.10;81.50;;;;;;5030486;28;20651;-67
2023/03/03 12:13:14;;;;;;;15.00;7.90;;;8.30;80.90;;;;;;5022416;28;20616;-67
2023/03/03 12:15:50;;;;;;;10.03;7.17;;;8.30;79.00;;;;;;5022398;28;20669;-67
2023/03/03 12:18:36;;;;;;;11.37;8.60;;;8.40;80.50;;;;;;5019437;28;20630;-67
2023/03/03 12:21:17;;;;;;;11.10;6.70;;;8.40;86.40;;;;;;5028994;28;21071;-67
2023/03/03 12:24:00;;;;;;;7.70;5.63;;;8.40;78.40;;;;;;5019668;28;20639;-66
2023/03/03 12:26:32;;;;;;;16.30;9.10;;;8.30;77.80;;;;;;5021743;28;20652;-67
2023/03/03 12:29:06;;;;;;;9.30;6.03;;;8.20;78.90;;;;;;5015157;28;20710;-66
2023/03/03 12:31:43;;;;;;;12.00;8.43;;;8.10;79.00;;;;;;5033570;28;20643;-67
2023/03/03 12:34:18;;;;;;;10.27;7.90;;;8.00;81.50;;;;;;5039083;28;20725;-67
2023/03/03 12:36:56;;;;;;;6.93;5.40;;;8.20;82.30;;;;;;5040615;28;20796;-67
2023/03/03 12:39:38;;;;;;;11.10;8.67;;;8.00;80.30;;;;;;5032001;28;21259;-66
2023/03/03 12:42:14;;;;;;;11.27;8.40;;;8.10;80.20;;;;;;5039599;28;20742;-67
2023/03/03 12:44:47;;;;;;;6.77;6.17;;;8.10;78.70;;;;;;5025136;28;20669;-67
2023/03/03 12:47:20;;;;;;;12.83;10.50;;;8.10;79.30;;;;;;5025155;28;20987;-67
2023/03/03 12:50:01;;;;;;;9.73;6.60;;;8.10;79.00;;;;;;5049455;28;20618;-67
2023/03/03 12:52:37;;;;;;;11.10;5.47;;;8.00;78.30;;;;;;5026295;28;20768;-67
2023/03/03 12:55:16;;;;;;;7.53;6.67;;;7.50;87.30;;;;;;5020306;28;20654;-68
2023/03/03 12:57:50;;;;;;;15.50;5.90;;;8.10;79.50;;;;;;5015841;28;20634;-67
2023/03/03 13:00:27;;;;;;;16.90;6.80;;;8.10;78.70;;;;;;5044673;28;20718;-67
2023/03/03 13:03:07;;;;;;;10.47;7.07;;;8.10;78.70;;;;;;5015719;28;20910;-67
2023/03/03 13:05:48;;;;;;;13.17;7.40;;;8.10;78.20;;;;;;5015741;28;21299;-66
2023/03/03 13:08:38;;;;;;;8.93;6.07;;;8.10;78.50;;;;;;5010095;28;20628;-66
2023/03/03 13:11:33;;;;;;;11.73;9.00;;;8.00;77.70;;;;;;5003913;28;20727;-67
2023/03/03 13:14:10;;;;;;;6.90;5.17;;;8.00;79.10;;;;;;5009470;28;20644;-67
2023/03/03 13:16:43;;;;;;;14.83;7.67;;;8.10;78.70;;;;;;5016246;28;20714;-67
2023/03/03 13:19:16;;;;;;;11.03;6.20;;;8.20;77.90;;;;;;5028244;28;20627;-67